Snav Lazio — IBUH — position and weather

sailwx.info

Track history (hours):
 
Tides and Currents Weather Stations Pressure Air Temp Water Temp Dewpoint Dewpoint Depression Visibility Wind Speed Wind Dir Waves Ship Positions

Snav Lazio

Last reported at 2015-Aug-01 16:04 UTC. Time now 2015-Aug-02 00:20 UTC.
Position N 41°14' E 018°40'.

Length 162 m; draft 6 m.

Type: Passenger vessel. MMSI: 247163100.

Date/timePositionNaut miles runAvg speedWind from/ knotsBaromVisibWave heightAir tempDewpointWater temp
2015-Aug-01 16:04N 41°14' E 018°40'2416.2
2015-Aug-01 14:33N 41°15' E 019°12'  
2015-Jul-29 17:24N 37°53' E 015°45'1416.0
2015-Jul-29 16:33N 38°04' E 015°35'1514.8
2015-Jul-29 15:33N 38°19' E 015°38'1818.2
2015-Jul-29 14:33N 38°19' E 015°15'1818.0
2015-Jul-29 13:33N 38°17' E 014°52'1918.3
2015-Jul-29 12:32N 38°15' E 014°28'2618.2
2015-Jul-29 11:08N 38°11' E 013°56'1118.3
2015-Jul-29 10:32N 38°11' E 013°42'1616.1
2015-Jul-29 09:34N 38°07' E 013°22'1 0.8
2015-Jul-29 08:34N 38°08' E 013°22'0 0.0
2015-Jul-29 07:34N 38°08' E 013°22'0 0.0
2015-Jul-29 06:34N 38°08' E 013°22'0 0.0
2015-Jul-29 05:34N 38°08' E 013°22'0 0.0
2015-Jul-29 04:33N 38°08' E 013°22'1312.9
2015-Jul-29 03:33N 38°20' E 013°28'12517.9
2015-Jul-28 20:34N 40°22' E 014°04'1818.3
2015-Jul-28 19:34N 40°40' E 014°11'11 0.7
2015-Jul-28 04:13N 40°50' E 014°16'913.5
2015-Jul-28 03:33N 40°42' E 014°13'1818.2
2015-Jul-28 02:33N 40°25' E 014°05'11118.3
2015-Jul-27 20:31N 38°37' E 013°34'1818.8
2015-Jul-27 19:33N 38°19' E 013°29'1312.6
2015-Jul-27 18:33N 38°08' E 013°22'0 0.0
2015-Jul-27 17:31N 38°08' E 013°22'0 0.0
2015-Jul-27 16:31N 38°08' E 013°22'0 0.0
2015-Jul-27 15:31N 38°08' E 013°22'0 0.0
2015-Jul-27 14:31N 38°08' E 013°22'0 0.0
2015-Jul-27 13:31N 38°08' E 013°22'0 0.0
2015-Jul-27 12:34N 38°08' E 013°22'0 0.0
2015-Jul-27 11:33N 38°08' E 013°22'0 0.0
2015-Jul-27 10:33N 38°08' E 013°22'0 0.0
2015-Jul-27 09:33N 38°08' E 013°22'0 0.0
2015-Jul-27 08:33N 38°08' E 013°22'0 0.0
2015-Jul-27 07:33N 38°08' E 013°22'0 0.0
2015-Jul-27 06:33N 38°08' E 013°22'0 0.0
2015-Jul-27 05:33N 38°08' E 013°22'0 0.0
2015-Jul-27 04:33N 38°08' E 013°22'9 8.7
2015-Jul-27 03:33N 38°16' E 013°27'12317.5
2015-Jul-26 20:33N 40°16' E 014°01'1717.2
2015-Jul-26 19:33N 40°32' E 014°06'1717.2
2015-Jul-26 18:33N 40°48' E 014°16'3 0.3
2015-Jul-26 08:19N 40°50' E 014°16'0 0.0
2015-Jul-26 07:22N 40°50' E 014°16'0 0.3
2015-Jul-26 06:32N 40°50' E 014°16'1515.9
2015-Jul-26 05:33N 40°36' E 014°09'12118.7
2015-Jul-25 23:05N 38°38' E 013°34'1018.8
2015-Jul-25 22:33N 38°28' E 013°32'1918.8
2015-Jul-25 21:33N 38°10' E 013°28'5 4.8
2015-Jul-25 20:33N 38°08' E 013°22'0 0.0
2015-Jul-25 19:33N 38°08' E 013°22'0 0.0
2015-Jul-25 18:33N 38°08' E 013°22'0 0.0
2015-Jul-25 17:33N 38°08' E 013°22'1110.7
2015-Jul-25 16:34N 38°18' E 013°27'1818.1
2015-Jul-25 15:33N 38°36' E 013°33'10717.9
2015-Jul-25 09:33N 40°20' E 014°02'1817.7
2015-Jul-25 08:33N 40°38' E 014°07'14 3.2
2015-Jul-25 04:10N 40°50' E 014°16'3 5.3
2015-Jul-25 03:33N 40°47' E 014°16'1818.2
2015-Jul-25 02:33N 40°30' E 014°07'11417.9
2015-Jul-24 20:13N 38°39' E 013°34'1318.9
2015-Jul-24 19:33N 38°27' E 013°31'1918.7
2015-Jul-24 18:33N 38°09' E 013°26'3 2.6
2015-Jul-24 17:25N 38°08' E 013°22'0 0.0
2015-Jul-24 16:25N 38°08' E 013°22'0 0.0
2015-Jul-24 15:25N 38°08' E 013°22'0 0.0
2015-Jul-24 14:28N 38°08' E 013°22'0 0.0
2015-Jul-24 13:28N 38°08' E 013°22'0 0.0
2015-Jul-24 12:28N 38°08' E 013°22'0 0.0
2015-Jul-24 11:28N 38°08' E 013°22'0 0.0
2015-Jul-24 10:31N 38°08' E 013°22'0 0.0
2015-Jul-24 09:31N 38°08' E 013°22'0 0.0
2015-Jul-24 08:33N 38°08' E 013°22'0 0.0
2015-Jul-24 07:33N 38°08' E 013°22'0 0.0
2015-Jul-24 06:33N 38°08' E 013°22'0 0.0
2015-Jul-24 05:33N 38°08' E 013°22'3 2.9
2015-Jul-24 04:33N 38°10' E 013°25'1717.4
2015-Jul-24 03:33N 38°27' E 013°29'10717.8
2015-Jul-23 21:34N 40°11' E 014°01'1818.3
2015-Jul-23 20:34N 40°29' E 014°06'129 5.2
2015-Jul-22 19:33N 38°23' E 013°30'1615.9
2015-Jul-22 18:33N 38°07' E 013°24'2 1.7
2015-Jul-22 17:34N 38°08' E 013°22'0 0.0
2015-Jul-22 16:33N 38°08' E 013°22'  
Track history (hours):
 
Tides and Currents Weather Stations Pressure Air Temp Water Temp Dewpoint Dewpoint Depression Visibility Wind Speed Wind Dir Waves Ship Positions

Snav Lazio

Last reported at 2015-Aug-01 16:04 UTC. Time now 2015-Aug-02 00:20 UTC.
Position N 41°14' E 018°40'.

Length 162 m; draft 6 m.

Type: Passenger vessel. MMSI: 247163100.

Date/timePositionNaut miles runAvg speedWind from/ knotsBaromVisibWave heightAir tempDewpointWater temp
2015-Aug-01 16:04N 41°14' E 018°40'2416.2
2015-Aug-01 14:33N 41°15' E 019°12'  
2015-Jul-29 17:24N 37°53' E 015°45'1416.0
2015-Jul-29 16:33N 38°04' E 015°35'1514.8
2015-Jul-29 15:33N 38°19' E 015°38'1818.2
2015-Jul-29 14:33N 38°19' E 015°15'1818.0
2015-Jul-29 13:33N 38°17' E 014°52'1918.3
2015-Jul-29 12:32N 38°15' E 014°28'2618.2
2015-Jul-29 11:08N 38°11' E 013°56'1118.3
2015-Jul-29 10:32N 38°11' E 013°42'1616.1
2015-Jul-29 09:34N 38°07' E 013°22'1 0.8
2015-Jul-29 08:34N 38°08' E 013°22'0 0.0
2015-Jul-29 07:34N 38°08' E 013°22'0 0.0
2015-Jul-29 06:34N 38°08' E 013°22'0 0.0
2015-Jul-29 05:34N 38°08' E 013°22'0 0.0
2015-Jul-29 04:33N 38°08' E 013°22'1312.9
2015-Jul-29 03:33N 38°20' E 013°28'12517.9
2015-Jul-28 20:34N 40°22' E 014°04'1818.3
2015-Jul-28 19:34N 40°40' E 014°11'11 0.7
2015-Jul-28 04:13N 40°50' E 014°16'913.5
2015-Jul-28 03:33N 40°42' E 014°13'1818.2
2015-Jul-28 02:33N 40°25' E 014°05'11118.3
2015-Jul-27 20:31N 38°37' E 013°34'1818.8
2015-Jul-27 19:33N 38°19' E 013°29'1312.6
2015-Jul-27 18:33N 38°08' E 013°22'0 0.0
2015-Jul-27 17:31N 38°08' E 013°22'0 0.0
2015-Jul-27 16:31N 38°08' E 013°22'0 0.0
2015-Jul-27 15:31N 38°08' E 013°22'0 0.0
2015-Jul-27 14:31N 38°08' E 013°22'0 0.0
2015-Jul-27 13:31N 38°08' E 013°22'0 0.0
2015-Jul-27 12:34N 38°08' E 013°22'0 0.0
2015-Jul-27 11:33N 38°08' E 013°22'0 0.0
2015-Jul-27 10:33N 38°08' E 013°22'0 0.0
2015-Jul-27 09:33N 38°08' E 013°22'0 0.0
2015-Jul-27 08:33N 38°08' E 013°22'0 0.0
2015-Jul-27 07:33N 38°08' E 013°22'0 0.0
2015-Jul-27 06:33N 38°08' E 013°22'0 0.0
2015-Jul-27 05:33N 38°08' E 013°22'0 0.0
2015-Jul-27 04:33N 38°08' E 013°22'9 8.7
2015-Jul-27 03:33N 38°16' E 013°27'12317.5
2015-Jul-26 20:33N 40°16' E 014°01'1717.2
2015-Jul-26 19:33N 40°32' E 014°06'1717.2
2015-Jul-26 18:33N 40°48' E 014°16'3 0.3
2015-Jul-26 08:19N 40°50' E 014°16'0 0.0
2015-Jul-26 07:22N 40°50' E 014°16'0 0.3
2015-Jul-26 06:32N 40°50' E 014°16'1515.9
2015-Jul-26 05:33N 40°36' E 014°09'12118.7
2015-Jul-25 23:05N 38°38' E 013°34'1018.8
2015-Jul-25 22:33N 38°28' E 013°32'1918.8
2015-Jul-25 21:33N 38°10' E 013°28'5 4.8
2015-Jul-25 20:33N 38°08' E 013°22'0 0.0
2015-Jul-25 19:33N 38°08' E 013°22'0 0.0
2015-Jul-25 18:33N 38°08' E 013°22'0 0.0
2015-Jul-25 17:33N 38°08' E 013°22'1110.7
2015-Jul-25 16:34N 38°18' E 013°27'1818.1
2015-Jul-25 15:33N 38°36' E 013°33'10717.9
2015-Jul-25 09:33N 40°20' E 014°02'1817.7
2015-Jul-25 08:33N 40°38' E 014°07'14 3.2
2015-Jul-25 04:10N 40°50' E 014°16'3 5.3
2015-Jul-25 03:33N 40°47' E 014°16'1818.2
2015-Jul-25 02:33N 40°30' E 014°07'11417.9
2015-Jul-24 20:13N 38°39' E 013°34'1318.9
2015-Jul-24 19:33N 38°27' E 013°31'1918.7
2015-Jul-24 18:33N 38°09' E 013°26'3 2.6
2015-Jul-24 17:25N 38°08' E 013°22'0 0.0
2015-Jul-24 16:25N 38°08' E 013°22'0 0.0
2015-Jul-24 15:25N 38°08' E 013°22'0 0.0
2015-Jul-24 14:28N 38°08' E 013°22'0 0.0
2015-Jul-24 13:28N 38°08' E 013°22'0 0.0
2015-Jul-24 12:28N 38°08' E 013°22'0 0.0
2015-Jul-24 11:28N 38°08' E 013°22'0 0.0
2015-Jul-24 10:31N 38°08' E 013°22'0 0.0
2015-Jul-24 09:31N 38°08' E 013°22'0 0.0
2015-Jul-24 08:33N 38°08' E 013°22'0 0.0
2015-Jul-24 07:33N 38°08' E 013°22'0 0.0
2015-Jul-24 06:33N 38°08' E 013°22'0 0.0
2015-Jul-24 05:33N 38°08' E 013°22'3 2.9
2015-Jul-24 04:33N 38°10' E 013°25'1717.4
2015-Jul-24 03:33N 38°27' E 013°29'10717.8
2015-Jul-23 21:34N 40°11' E 014°01'1818.3
2015-Jul-23 20:34N 40°29' E 014°06'129 5.2
2015-Jul-22 19:33N 38°23' E 013°30'1615.9
2015-Jul-22 18:33N 38°07' E 013°24'2 1.7
2015-Jul-22 17:34N 38°08' E 013°22'0 0.0
2015-Jul-22 16:33N 38°08' E 013°22'  

Dump ship's entire track history